首页
METAR-TAF:

METAR-TAF

机场 :

Swift Current, 薩斯喀徹溫, 加拿大

纬度: 50-17N, 经度: 107-41W, 海拔: 818米

当前天气观测

该预报发布于16分钟前的12:00 UTC
风速6节,风向西转西南
温度 -9°C
湿度 85%
气压 1024 hPa
能見度: 14.5公里
天空无云

METAR: CYYN 091200Z AUTO 24006KT 9SM CLR M09/M11 A3023 RMK ICG INTMT SLP281

时间: 06:16 (12:16 UTC)

预报

该预报发布于34分钟前的11:42 UTC
预报有效从09日的 12点(UTC)到 09日的 24点(UTC)
风速3节,风向多变
能見度: 10公里
天空无云
几率 30%
从 09日的 12点(UTC)到 09日的 15点(UTC)
能見度: 1.6公里
轻雾
从 09日的 1500点(UTC)
风速10节,风向南转西南
能見度: 10公里
少量云层高于24000英尺
从 09日的 1900点(UTC)
风速15节,风向南转西南
能見度: 10公里
散云层高于12000英尺
多云层高于24000英尺

TAF: CYYN 091142Z 0912/0924 VRB03KT P6SM SKC PROB30 0912/0915 1SM BR FM091500 20010KT P6SM FEW240 FM091900 20015KT P6SM SCT120 BKN240 RMK FCST BASED ON AUTO OBS. NXT FCST BY 091800Z

超过4000个机场的气象观测和天气预报(METAR&TAF报告)。

可查询的气象台以黄色和红色小点在地图上表示。

将鼠标移到小点上方,可查看气象台名称。

然后点击查看天气观测和预报。

如需切换地图:点击带黑十字的绿色按钮放大地图;点击带横线的绿色按钮缩小地图;或者点击绿色箭头查看邻近地区的地图。


METAR-TAF: